createdAt,value
2019-02-23T01:02:38.768Z,48.40
2019-02-23T01:17:11.480Z,57.60
2019-02-23T06:14:00.054Z,56.63
2019-02-23T06:32:44.404Z,47.07
2019-02-23T07:10:14.699Z,56.73
2019-02-23T07:13:30.802Z,54.13
2019-02-23T07:16:09.740Z,54.00
2019-02-23T07:18:43.928Z,59.37
2019-02-23T07:21:21.675Z,55.40
2019-02-23T07:23:51.222Z,50.37
2019-02-23T07:26:20.763Z,52.03
2019-02-23T07:28:50.219Z,51.10
2019-02-23T07:31:20.178Z,52.73
2019-02-23T07:33:49.670Z,54.03
2019-02-23T07:36:19.142Z,53.20
2019-02-23T07:38:51.729Z,44.47
2019-02-23T07:41:21.462Z,50.87
2019-02-23T07:44:04.898Z,49.57
2019-02-23T07:46:38.611Z,50.27
2019-02-23T07:49:22.378Z,57.37
2019-02-23T07:52:26.334Z,57.60
2019-02-23T07:55:04.132Z,48.00
2019-02-23T07:57:34.935Z,56.07
2019-02-23T08:00:04.760Z,56.00
2019-02-23T08:02:34.682Z,62.48
2019-02-23T08:05:04.329Z,52.57
2019-02-23T08:07:34.063Z,51.27
2019-02-23T08:10:04.977Z,47.90
2019-02-23T08:12:37.600Z,49.37
2019-02-23T08:15:11.935Z,54.50
2019-02-23T08:17:41.249Z,48.90
2019-02-23T08:20:10.638Z,47.20
2019-02-23T08:22:40.015Z,46.30
2019-02-23T08:25:09.528Z,47.63
2019-02-23T08:27:38.830Z,47.53
2019-02-23T08:30:09.836Z,45.03
2019-02-23T08:32:39.589Z,37.73
2019-02-23T08:35:09.042Z,48.20
2019-02-23T08:37:38.651Z,45.17
2019-02-23T08:40:08.644Z,46.47
2019-02-23T08:42:38.043Z,43.17
2019-02-23T08:45:08.026Z,40.50
2019-02-23T08:47:37.398Z,45.60
2019-02-23T08:50:15.217Z,39.87
2019-02-23T08:52:49.385Z,49.70
2019-02-23T08:55:15.718Z,46.33
2019-02-23T08:57:45.221Z,38.57
2019-02-23T09:00:19.168Z,42.70
2019-02-23T09:02:48.664Z,34.90
2019-02-23T09:05:18.106Z,39.93
2019-02-23T09:07:49.316Z,40.70
2019-02-23T09:10:21.578Z,36.00
2019-02-23T09:12:51.174Z,39.53
2019-02-23T09:15:22.298Z,42.47
2019-02-23T09:17:52.110Z,38.37
2019-02-23T09:20:29.118Z,38.13
2019-02-23T09:23:00.117Z,40.17
2019-02-23T09:25:24.374Z,38.77
2019-02-23T09:27:53.840Z,39.53
2019-02-23T09:30:23.641Z,44.60
2019-02-23T09:32:53.027Z,37.27
2019-02-23T09:35:23.318Z,41.17
2019-02-23T09:37:52.887Z,38.37
2019-02-23T09:40:22.185Z,38.63
2019-02-23T09:42:51.588Z,37.93
2019-02-23T09:45:21.367Z,37.43
2019-02-23T09:47:53.628Z,39.57
2019-02-23T09:50:23.062Z,33.37
2019-02-23T09:52:52.567Z,31.80
2019-02-23T09:55:21.988Z,37.37
2019-02-23T09:57:51.732Z,33.80
2019-02-23T10:00:21.149Z,38.83
2019-02-23T10:02:50.918Z,38.13
2019-02-23T10:05:20.745Z,29.07
2019-02-23T10:08:39.693Z,34.73
2019-02-23T10:11:26.086Z,33.70
2019-02-23T10:13:59.930Z,32.60
2019-02-23T10:16:31.900Z,32.37
2019-02-23T10:19:01.430Z,33.53
2019-02-23T10:21:31.079Z,34.87
2019-02-23T10:24:00.467Z,34.70
2019-02-23T10:26:33.257Z,33.70
2019-02-23T10:29:02.834Z,35.67
2019-02-23T10:31:32.274Z,37.47
2019-02-23T10:34:01.671Z,35.13
2019-02-23T10:36:33.493Z,31.57
2019-02-23T10:39:06.255Z,33.63
2019-02-23T10:41:37.156Z,33.40
2019-02-23T10:44:06.837Z,31.83
2019-02-23T10:46:36.311Z,29.53
2019-02-23T10:49:06.149Z,28.13
2019-02-23T10:51:47.571Z,27.03
2019-02-23T10:54:17.080Z,31.27
2019-02-23T10:56:47.293Z,32.07
2019-02-23T10:59:16.794Z,26.50
2019-02-23T11:01:46.611Z,26.03
2019-02-23T11:04:19.608Z,39.40
2019-02-23T11:06:49.257Z,26.73
2019-02-23T11:09:23.262Z,27.30
2019-02-23T11:11:53.015Z,25.27
2019-02-23T11:14:43.491Z,27.93
2019-02-23T11:17:27.215Z,23.93
2019-02-23T11:20:10.368Z,23.07
2019-02-23T11:22:40.406Z,28.73
2019-02-23T11:25:21.538Z,26.40
2019-02-23T11:27:57.039Z,27.57
2019-02-23T11:30:26.787Z,26.97
2019-02-23T11:32:57.007Z,30.37
2019-02-23T11:35:28.579Z,25.37
2019-02-23T11:37:58.550Z,23.97
2019-02-23T11:40:28.045Z,24.03
2019-02-23T11:42:59.391Z,28.17
2019-02-23T11:45:31.869Z,24.83
2019-02-23T11:48:03.495Z,24.90
2019-02-23T11:50:35.326Z,21.93
2019-02-23T11:53:05.087Z,25.80
2019-02-23T11:55:35.060Z,23.63
2019-02-23T11:58:05.241Z,26.77
2019-02-23T12:00:41.053Z,21.43
2019-02-23T12:03:11.302Z,24.47
2019-02-23T12:05:41.481Z,26.20
2019-02-23T12:08:14.838Z,26.53
2019-02-23T12:10:44.350Z,23.43
2019-02-23T12:13:15.584Z,26.53
2019-02-23T12:15:45.126Z,24.03
2019-02-23T12:18:14.861Z,23.33
2019-02-23T12:20:49.075Z,25.07
2019-02-23T12:23:18.522Z,22.97
2019-02-23T12:25:57.243Z,23.33
2019-02-23T12:28:27.583Z,25.17
2019-02-23T12:30:58.894Z,21.13
2019-02-23T12:33:28.780Z,20.83
2019-02-23T12:35:58.777Z,20.53
2019-02-23T12:38:28.754Z,19.23
2019-02-23T12:41:03.890Z,20.03
2019-02-23T12:43:34.511Z,19.77
2019-02-23T12:46:05.027Z,21.90
2019-02-23T12:48:36.245Z,19.00
2019-02-23T12:51:05.935Z,18.43
2019-02-23T12:53:35.541Z,22.13
2019-02-23T12:56:05.072Z,22.20
2019-02-23T12:58:45.178Z,23.23
2019-02-23T13:01:14.908Z,20.40
2019-02-23T13:03:44.476Z,20.50
2019-02-23T13:06:13.977Z,20.00
2019-02-23T13:09:20.357Z,20.30
2019-02-23T13:12:10.522Z,20.87
2019-02-23T13:15:21.258Z,18.17
2019-02-23T13:18:56.605Z,18.33
2019-02-23T13:22:07.260Z,19.53
2019-02-23T13:25:10.594Z,21.17
2019-02-23T13:28:06.903Z,20.17
2019-02-23T13:31:15.046Z,19.13
2019-02-23T13:34:20.324Z,21.70
2019-02-23T13:37:02.231Z,20.83
2019-02-23T13:40:15.950Z,21.30
2019-02-23T13:43:46.295Z,17.83
2019-02-23T13:46:56.797Z,19.47
2019-02-23T13:49:56.441Z,20.40
2019-02-23T13:52:58.558Z,18.60
2019-02-23T13:56:09.583Z,21.67
2019-02-23T13:59:00.958Z,21.80
2019-02-23T14:02:17.388Z,18.77
2019-02-23T14:05:32.155Z,19.50
2019-02-23T14:09:03.807Z,20.00
2019-02-23T14:12:04.148Z,20.85
2019-02-23T14:15:02.931Z,20.07
2019-02-23T14:18:25.732Z,19.57
2019-02-23T14:21:27.987Z,21.57
2019-02-23T14:24:38.339Z,20.83
2019-02-23T14:27:32.862Z,19.30
2019-02-23T14:30:25.529Z,22.80
2019-02-23T14:33:27.511Z,20.80
2019-02-23T14:36:25.834Z,21.43
2019-02-23T14:39:29.827Z,19.17
2019-02-23T14:42:49.175Z,20.13
2019-02-23T14:46:15.018Z,19.65
2019-02-23T14:49:20.117Z,19.73
2019-02-23T14:52:38.694Z,18.37
2019-02-23T14:56:04.436Z,22.77
2019-02-23T14:58:57.224Z,22.13
2019-02-23T15:01:45.211Z,21.33
2019-02-23T15:04:53.313Z,21.93
2019-02-23T15:08:04.468Z,20.40
2019-02-23T15:11:36.106Z,22.03
2019-02-23T15:14:40.920Z,20.87
2019-02-23T15:17:50.131Z,18.60
2019-02-23T15:21:06.788Z,21.83
2019-02-23T15:24:26.519Z,19.83
2019-02-23T15:27:30.691Z,22.10
2019-02-23T15:30:38.657Z,21.17
2019-02-23T15:34:02.589Z,29.60
2019-02-23T15:37:21.876Z,21.87
2019-02-23T15:40:40.868Z,20.50
2019-02-23T15:44:05.917Z,24.57
2019-02-23T15:47:28.298Z,21.20
2019-02-23T15:50:12.133Z,25.93
2019-02-23T15:52:49.784Z,25.47
2019-02-23T15:55:26.104Z,23.03
2019-02-23T15:57:50.497Z,25.17
2019-02-23T16:00:21.683Z,29.17
2019-02-23T16:02:51.367Z,26.37
2019-02-23T16:05:21.013Z,25.57
2019-02-23T16:07:53.549Z,29.37
2019-02-23T16:10:24.816Z,26.40
2019-02-23T16:12:54.666Z,26.87
2019-02-23T16:15:24.317Z,28.63
2019-02-23T16:17:53.949Z,25.83
2019-02-23T16:20:23.487Z,26.17
2019-02-23T16:22:53.246Z,26.10
2019-02-23T16:25:22.832Z,27.40
2019-02-23T16:27:52.545Z,27.53
2019-02-23T16:30:22.132Z,33.03
2019-02-23T16:32:52.243Z,28.37
2019-02-23T16:35:23.975Z,28.53
2019-02-23T16:37:55.745Z,28.27
2019-02-23T16:40:27.866Z,25.17
2019-02-23T16:43:01.939Z,27.90
2019-02-23T16:45:31.576Z,26.93
2019-02-23T16:48:01.052Z,27.57
2019-02-23T16:50:30.490Z,28.80
2019-02-23T16:53:01.085Z,29.70
2019-02-23T16:55:31.035Z,22.37
2019-02-23T16:58:01.065Z,26.13
2019-02-23T17:00:30.603Z,25.60
2019-02-23T17:03:01.183Z,23.67
2019-02-23T17:05:30.673Z,23.83
2019-02-23T17:08:01.912Z,24.93
2019-02-23T17:10:31.549Z,26.10
2019-02-23T17:13:01.057Z,24.60
2019-02-23T17:15:30.561Z,26.40
2019-02-23T17:18:00.047Z,26.33
2019-02-23T17:20:29.521Z,26.43
2019-02-23T17:23:02.030Z,29.57
2019-02-23T17:25:32.885Z,28.00
2019-02-23T17:28:02.369Z,29.03
2019-02-23T17:30:31.749Z,28.13
2019-02-23T17:33:04.074Z,29.43
2019-02-23T17:35:33.635Z,23.67
2019-02-23T17:38:15.405Z,25.73
2019-02-23T17:40:38.081Z,26.17
2019-02-23T17:43:07.670Z,24.90
2019-02-23T17:45:40.324Z,22.67
2019-02-23T17:48:19.421Z,24.63
2019-02-23T17:50:50.657Z,25.27
2019-02-23T17:53:41.430Z,26.63
2019-02-23T17:56:12.626Z,22.53
2019-02-23T17:58:45.838Z,24.07
2019-02-23T18:01:15.494Z,26.43
2019-02-23T18:03:45.060Z,25.13
2019-02-23T18:07:00.313Z,28.30
2019-02-23T18:09:37.950Z,24.03
2019-02-23T18:12:07.601Z,22.33
2019-02-23T18:14:54.926Z,27.27
2019-02-23T18:17:25.915Z,22.80
2019-02-23T18:19:55.478Z,23.20
2019-02-23T18:22:24.978Z,23.37
2019-02-23T18:24:54.481Z,24.27
2019-02-23T18:27:23.964Z,22.53
2019-02-23T18:29:54.358Z,24.20
2019-02-23T18:32:23.753Z,23.83
2019-02-23T18:34:53.800Z,25.73
2019-02-23T18:37:23.241Z,25.60
2019-02-23T18:39:52.735Z,25.67
2019-02-23T18:42:22.150Z,25.00
2019-02-23T18:44:51.540Z,24.70
2019-02-23T18:47:20.940Z,22.50
2019-02-23T18:49:50.449Z,23.33
2019-02-23T18:52:19.936Z,27.93
2019-02-23T18:54:52.793Z,25.00
2019-02-23T18:57:22.291Z,21.50
2019-02-23T18:59:51.801Z,24.40
2019-02-23T19:02:21.370Z,28.57
2019-02-23T19:04:50.850Z,25.03
2019-02-23T19:07:20.325Z,25.60
2019-02-23T19:09:52.114Z,27.27
2019-02-23T19:12:21.585Z,25.10
2019-02-23T19:14:51.138Z,25.50
2019-02-23T19:17:20.711Z,26.80
2019-02-23T19:19:51.502Z,22.20
2019-02-23T19:22:21.139Z,26.23
2019-02-23T19:24:50.614Z,23.67
2019-02-23T19:27:20.145Z,25.60
2019-02-23T19:29:51.250Z,25.27
2019-02-23T19:32:20.963Z,24.70
2019-02-23T19:34:50.506Z,26.77
2019-02-23T19:37:19.982Z,26.87
2019-02-23T19:39:49.444Z,28.13
2019-02-23T19:42:18.910Z,27.20
2019-02-23T19:44:51.405Z,24.53
2019-02-23T19:47:24.241Z,26.97
2019-02-23T19:49:58.495Z,27.77
2019-02-23T19:52:27.998Z,24.07
2019-02-23T19:54:57.500Z,26.83
2019-02-23T19:57:27.019Z,29.47
2019-02-23T19:59:56.632Z,27.67
2019-02-23T20:02:26.058Z,22.43
2019-02-23T20:04:55.462Z,25.83
2019-02-23T20:07:26.218Z,25.53
2019-02-23T20:09:55.699Z,24.27
2019-02-23T20:12:25.023Z,27.07
2019-02-23T20:14:54.493Z,23.40
2019-02-23T20:17:23.985Z,23.40
2019-02-23T20:19:53.644Z,25.70
2019-02-23T20:22:25.004Z,24.80
2019-02-23T20:24:54.509Z,22.77
2019-02-23T20:27:24.016Z,27.10
2019-02-23T20:29:53.716Z,25.27
2019-02-23T20:32:25.001Z,25.30
2019-02-23T20:34:54.474Z,26.37
2019-02-23T20:37:26.395Z,28.20
2019-02-23T20:39:57.399Z,24.30
2019-02-23T20:42:27.383Z,25.53
2019-02-23T20:44:59.725Z,24.57
2019-02-23T20:47:29.156Z,28.53
2019-02-23T20:49:58.786Z,26.90
2019-02-23T20:52:28.203Z,27.50
2019-02-23T20:54:57.679Z,29.00
2019-02-23T20:57:27.189Z,25.47
2019-02-23T20:59:58.239Z,29.20
2019-02-23T21:02:30.708Z,25.00
2019-02-23T21:05:01.607Z,27.67
2019-02-23T21:07:49.009Z,27.13
2019-02-23T21:10:33.704Z,29.83
2019-02-23T21:13:06.791Z,24.17
2019-02-23T21:15:38.870Z,27.97
2019-02-23T21:18:09.459Z,26.37
2019-02-23T21:20:51.649Z,28.40
2019-02-23T21:23:21.422Z,24.33
2019-02-23T21:25:53.260Z,27.00
2019-02-23T21:28:22.972Z,30.83
2019-02-23T21:30:53.785Z,26.67
2019-02-23T21:33:23.520Z,29.80
2019-02-23T21:35:53.015Z,25.73
2019-02-23T21:38:22.671Z,26.70
2019-02-23T21:40:52.242Z,26.83
2019-02-23T21:43:22.753Z,27.37
2019-02-23T21:45:52.252Z,29.33
2019-02-23T21:48:23.470Z,28.20
2019-02-23T21:50:52.937Z,27.47
2019-02-23T21:53:22.548Z,30.57
2019-02-23T21:55:53.690Z,23.80
2019-02-23T21:58:23.472Z,25.87
2019-02-23T22:00:53.536Z,25.97
2019-02-23T22:03:23.648Z,25.97
2019-02-23T22:05:55.546Z,26.40
2019-02-23T22:08:25.721Z,23.93
2019-02-23T22:11:08.919Z,23.90
2019-02-23T22:13:40.194Z,26.53
2019-02-23T22:16:10.088Z,25.00
2019-02-23T22:18:45.492Z,29.63
2019-02-23T22:21:15.985Z,22.77
2019-02-23T22:23:45.659Z,24.03
2019-02-23T22:26:15.540Z,24.90
2019-02-23T22:28:45.315Z,26.13
2019-02-23T22:31:17.222Z,24.87
2019-02-23T22:33:46.828Z,27.20
2019-02-23T22:36:19.830Z,28.30
2019-02-23T22:38:49.299Z,25.70
2019-02-23T22:41:19.058Z,25.67
2019-02-23T22:43:48.667Z,31.60
2019-02-23T22:46:18.249Z,27.03
2019-02-23T22:48:47.909Z,25.03
2019-02-23T22:51:17.423Z,30.77
2019-02-23T22:53:46.925Z,29.20
2019-02-23T22:56:19.497Z,26.30
2019-02-23T22:58:50.594Z,24.40
2019-02-23T23:01:24.280Z,27.07
2019-02-23T23:03:53.864Z,26.37
2019-02-23T23:06:23.502Z,25.00
2019-02-23T23:08:53.044Z,28.00
2019-02-23T23:11:22.576Z,25.23
2019-02-23T23:13:55.059Z,30.97
2019-02-23T23:16:24.570Z,25.73
2019-02-23T23:18:53.948Z,23.37
2019-02-23T23:21:23.345Z,30.73
2019-02-23T23:23:52.935Z,26.77
2019-02-23T23:26:22.540Z,29.30
2019-02-23T23:28:52.020Z,27.67
2019-02-23T23:31:21.643Z,26.17
2019-02-23T23:33:51.239Z,27.40
2019-02-23T23:36:20.685Z,26.00
2019-02-23T23:38:51.726Z,27.60
2019-02-23T23:41:21.352Z,27.90
2019-02-23T23:43:50.950Z,29.30
2019-02-23T23:46:20.525Z,25.67
2019-02-23T23:48:50.102Z,35.30
2019-02-23T23:51:21.915Z,26.20
2019-02-23T23:53:51.395Z,28.50
2019-02-23T23:56:20.958Z,28.07
2019-02-23T23:58:51.431Z,27.17
